Hodges, South Carolina
Current Conditions -  °F | °C
As of 11:56 PM on Tuesday 21 Oct 2014 (Local Time) from KGRD Reporting Station
Clear Clear  
Wind Chill: 50°   Ceiling: Unl
Heat Index: 50°   Visibility: 10mi
Dew Point: 45°   Wind: 3mph
Humidity: 83%   Direction: 340°NNW
Pressure: 30.01"   Gusts: NA
Location:  34.29°N, 82.25°W
Report Text: KGRD 220356Z AUTO 34003KT 10SM CLR 10/07 A3001 RMK AO2 SLP158 T01000072
Loading
Personal Weather Stations






























Interactive Weather Map
Tropical Storm Tracking
New forecast layout! Learn more

10-Day Weather Forecast

Advertisements
Track Severe Weather on mobile